עמוד ראשי
METAR-TAF:

METAR-TAF

שדות תעופה :

אייטוטקי, איי קוק

קו רוחב: 18-49-51S, קו אורך: 159-45-51W, גובה: 4מטר

תצפית מזג אוויר נוכחית

הדו"ח נערך לפני 1 שעות ו 8דקות, בשעה 11:00 UTC
רוח 12קשר מכיוון מזרח
טמפרטורת 26 צלסיוס
לחות 84%
לחץ 1015 hPa

METAR: NCAI 151100Z AUTO 08012KT //// ////// 26/23 Q1015

זמן: 02:08 (12:08 UTC)


TAF: חסר

תצפיות ותחזיות מזג אוויר לגבי יותר מ- 4,000 שדות תעופה ברחבי העולם. דוחות METAR ו- TAF.

התחנות הזמינות מסומנות בנקודות צהובות ואדומות על גבי המפה.

העבר את העכבר לנקודה הצבעונית על מנת לראות את שם התחנה.

לאחר מכן, לחץ כדי לראות את תוכן ואת תחזיות מזג האוויר.

כדי לשנות את המפה: לחץ על הכפתורים הירוקים עם הפלוס השחור כדי להתקרב; על הכפתור הירוק עם המקף כדי להתרחק; או בחיצים הירוקים למפות סמוכות.


METAR-TAF: